createdAt,value
2022-12-10T00:00:41.343Z,980.75
2022-12-10T00:01:42.990Z,980.8
2022-12-10T00:02:44.793Z,980.81
2022-12-10T00:03:46.439Z,980.8
2022-12-10T00:04:49.558Z,980.82
2022-12-10T00:05:49.966Z,980.85
2022-12-10T00:06:51.677Z,980.78
2022-12-10T00:07:53.492Z,980.86
2022-12-10T00:08:55.102Z,980.85
2022-12-10T00:09:56.834Z,980.91
2022-12-10T00:10:58.603Z,980.92
2022-12-10T00:12:00.332Z,980.89
2022-12-10T00:13:02.050Z,980.89
2022-12-10T00:14:03.759Z,980.97
2022-12-10T00:15:05.542Z,980.92
2022-12-10T00:16:07.437Z,981.02
2022-12-10T00:17:12.944Z,980.96
2022-12-10T00:18:10.695Z,980.94
2022-12-10T00:19:12.442Z,980.97
2022-12-10T00:20:14.189Z,980.95
2022-12-10T00:21:15.932Z,980.97
2022-12-10T00:22:17.649Z,980.97
2022-12-10T00:23:23.217Z,980.92
2022-12-10T00:24:21.150Z,980.91
2022-12-10T00:25:22.895Z,980.92
2022-12-10T00:26:24.616Z,980.93
2022-12-10T00:27:26.310Z,980.89
2022-12-10T00:28:28.174Z,980.94
2022-12-10T00:29:29.789Z,980.92
2022-12-10T00:30:31.548Z,980.95
2022-12-10T00:31:33.609Z,980.93
2022-12-10T00:32:35.010Z,980.9
2022-12-10T00:33:36.742Z,980.93
2022-12-10T00:34:38.498Z,980.92
2022-12-10T00:35:40.230Z,980.97
2022-12-10T00:36:41.961Z,980.99
2022-12-10T00:37:43.668Z,980.97
2022-12-10T00:38:45.425Z,980.94
2022-12-10T00:39:47.159Z,980.93
2022-12-10T00:40:49.003Z,980.83
2022-12-10T00:41:50.625Z,980.83
2022-12-10T00:42:52.320Z,980.91
2022-12-10T00:43:54.074Z,980.89
2022-12-10T00:44:55.969Z,980.95
2022-12-10T00:45:57.563Z,980.96
2022-12-10T00:46:59.326Z,980.92
2022-12-10T00:48:01.020Z,980.94
2022-12-10T00:49:02.722Z,980.91
2022-12-10T00:50:04.491Z,980.92
2022-12-10T00:51:06.252Z,980.87
2022-12-10T00:52:07.937Z,980.89
2022-12-10T00:53:09.691Z,980.94
2022-12-10T00:54:11.385Z,980.91
2022-12-10T00:55:13.125Z,980.89
2022-12-10T00:56:14.869Z,980.91
2022-12-10T00:57:16.643Z,980.96
2022-12-10T00:58:18.335Z,980.96
2022-12-10T00:59:20.057Z,980.91
2022-12-10T01:00:21.837Z,980.96
2022-12-10T01:01:23.710Z,980.88
2022-12-10T01:02:25.340Z,980.94
2022-12-10T01:03:27.014Z,980.94
2022-12-10T01:04:28.832Z,980.97
2022-12-10T01:05:30.503Z,980.95
2022-12-10T01:06:32.225Z,980.9
2022-12-10T01:07:33.933Z,980.95
2022-12-10T01:08:35.692Z,980.91
2022-12-10T01:09:37.440Z,980.89
2022-12-10T01:10:39.132Z,980.9
2022-12-10T01:11:40.916Z,980.94
2022-12-10T01:12:42.608Z,980.92
2022-12-10T01:13:44.326Z,980.91
2022-12-10T01:14:46.059Z,980.97
2022-12-10T01:15:47.830Z,980.94
2022-12-10T01:16:49.538Z,980.94
2022-12-10T01:17:51.293Z,980.99
2022-12-10T01:18:53.036Z,981.06
2022-12-10T01:19:54.784Z,981.07
2022-12-10T01:20:56.470Z,981.07
2022-12-10T01:21:58.215Z,981.05
2022-12-10T01:22:59.973Z,981.07
2022-12-10T01:24:01.666Z,981.09
2022-12-10T01:25:03.418Z,981.15
2022-12-10T01:26:05.145Z,981.07
2022-12-10T01:27:06.866Z,981.15
2022-12-10T01:28:08.606Z,981.08
2022-12-10T01:29:10.376Z,981.1
2022-12-10T01:30:12.066Z,981.19
2022-12-10T01:31:13.909Z,981.16
2022-12-10T01:32:15.551Z,981.15
2022-12-10T01:33:17.302Z,981.15
2022-12-10T01:34:19.045Z,981.2
2022-12-10T01:35:20.798Z,981.22
2022-12-10T01:36:22.501Z,981.25
2022-12-10T01:37:24.210Z,981.22
2022-12-10T01:38:25.929Z,981.23
2022-12-10T01:39:27.697Z,981.33
2022-12-10T01:40:29.405Z,981.33
2022-12-10T01:41:31.145Z,981.34
2022-12-10T01:42:32.922Z,981.37
2022-12-10T01:43:34.645Z,981.36
2022-12-10T01:44:36.383Z,981.36
2022-12-10T01:45:38.138Z,981.38
2022-12-10T01:46:39.808Z,981.39
2022-12-10T01:47:41.533Z,981.44
2022-12-10T01:48:43.295Z,981.43
2022-12-10T01:49:44.996Z,981.42
2022-12-10T01:50:46.745Z,981.48
2022-12-10T01:51:48.477Z,981.48
2022-12-10T01:52:50.506Z,981.44
2022-12-10T01:53:51.940Z,981.44
2022-12-10T01:54:53.684Z,981.45
2022-12-10T01:55:55.443Z,981.47
2022-12-10T01:56:57.154Z,981.46
2022-12-10T01:57:58.885Z,981.5
2022-12-10T01:59:00.648Z,981.54
2022-12-10T02:00:02.371Z,981.48
2022-12-10T02:01:04.239Z,981.5
2022-12-10T02:02:05.861Z,981.44
2022-12-10T02:03:07.545Z,981.47
2022-12-10T02:04:09.276Z,981.48
2022-12-10T02:05:11.012Z,981.45
2022-12-10T02:06:12.799Z,981.5
2022-12-10T02:07:14.497Z,981.46
2022-12-10T02:08:16.221Z,981.49
2022-12-10T02:09:17.949Z,981.48
2022-12-10T02:10:19.719Z,981.42
2022-12-10T02:11:21.455Z,981.46
2022-12-10T02:12:23.167Z,981.45
2022-12-10T02:13:24.882Z,981.52
2022-12-10T02:14:26.627Z,981.49
2022-12-10T02:15:28.382Z,981.52
2022-12-10T02:16:30.158Z,981.48
2022-12-10T02:17:31.818Z,981.49
2022-12-10T02:18:33.543Z,981.54
2022-12-10T02:19:35.292Z,981.42
2022-12-10T02:20:37.024Z,981.49
2022-12-10T02:21:38.751Z,981.52
2022-12-10T02:22:40.517Z,981.51
2022-12-10T02:23:42.266Z,981.51
2022-12-10T02:24:43.998Z,981.53
2022-12-10T02:25:45.681Z,981.48
2022-12-10T02:26:47.430Z,981.51
2022-12-10T02:27:49.185Z,981.47
2022-12-10T02:28:50.889Z,981.47
2022-12-10T02:29:52.615Z,981.46
2022-12-10T02:30:54.353Z,981.42
2022-12-10T02:31:56.667Z,981.47
2022-12-10T02:32:57.858Z,981.44
2022-12-10T02:33:59.560Z,981.47
2022-12-10T02:35:04.889Z,981.41
2022-12-10T02:36:03.030Z,981.43
2022-12-10T02:37:04.797Z,981.41
2022-12-10T02:38:06.490Z,981.45
2022-12-10T02:39:08.225Z,981.45
2022-12-10T02:40:10.224Z,981.44
2022-12-10T02:41:11.695Z,981.42
2022-12-10T02:42:13.444Z,981.42
2022-12-10T02:43:15.169Z,981.46
2022-12-10T02:44:16.929Z,981.46
2022-12-10T02:45:18.623Z,981.46
2022-12-10T02:46:20.404Z,981.44
2022-12-10T02:47:22.090Z,981.52
2022-12-10T02:48:23.866Z,981.44
2022-12-10T02:49:25.569Z,981.49
2022-12-10T02:50:27.313Z,981.52
2022-12-10T02:51:29.065Z,981.52
2022-12-10T02:52:30.764Z,981.51
2022-12-10T02:53:32.496Z,981.51
2022-12-10T02:54:34.265Z,981.54
2022-12-10T02:55:35.960Z,981.49
2022-12-10T02:56:37.699Z,981.5
2022-12-10T02:57:39.430Z,981.48
2022-12-10T02:58:41.196Z,981.49
2022-12-10T02:59:42.901Z,981.49
2022-12-10T03:00:44.797Z,981.52
2022-12-10T03:01:46.395Z,981.51
2022-12-10T03:02:48.199Z,981.49
2022-12-10T03:03:49.929Z,981.5
2022-12-10T03:04:51.588Z,981.51
2022-12-10T03:05:53.340Z,981.57
2022-12-10T03:06:55.034Z,981.54
2022-12-10T03:07:56.802Z,981.52
2022-12-10T03:08:58.521Z,981.56
2022-12-10T03:10:00.277Z,981.51
2022-12-10T03:11:01.992Z,981.55
2022-12-10T03:12:03.745Z,981.47
2022-12-10T03:13:05.452Z,981.48
2022-12-10T03:14:07.394Z,981.44
2022-12-10T03:15:09.210Z,981.46
2022-12-10T03:16:10.855Z,981.45
2022-12-10T03:17:12.389Z,981.41
2022-12-10T03:18:14.156Z,981.44
2022-12-10T03:19:15.825Z,981.41
2022-12-10T03:20:17.614Z,981.49
2022-12-10T03:21:19.310Z,981.42
2022-12-10T03:22:21.037Z,981.43
2022-12-10T03:23:22.807Z,981.4
2022-12-10T03:24:24.506Z,981.39
2022-12-10T03:25:26.238Z,981.37
2022-12-10T03:26:27.981Z,981.38
2022-12-10T03:27:29.802Z,981.37
2022-12-10T03:28:31.439Z,981.39
2022-12-10T03:29:33.181Z,981.35
2022-12-10T03:30:35.042Z,981.37
2022-12-10T03:31:36.887Z,981.33
2022-12-10T03:32:38.429Z,981.37
2022-12-10T03:33:40.166Z,981.34
2022-12-10T03:34:41.847Z,981.42
2022-12-10T03:35:43.581Z,981.43
2022-12-10T03:36:45.317Z,981.42
2022-12-10T03:37:47.005Z,981.42
2022-12-10T03:38:48.756Z,981.46
2022-12-10T03:39:50.499Z,981.47
2022-12-10T03:40:52.209Z,981.46
2022-12-10T03:41:53.969Z,981.49
2022-12-10T03:42:55.667Z,981.47
2022-12-10T03:43:57.432Z,981.44
2022-12-10T03:44:59.394Z,981.5
2022-12-10T03:46:00.971Z,981.44
2022-12-10T03:47:02.828Z,981.48
2022-12-10T03:48:05.367Z,981.46
2022-12-10T03:49:06.029Z,981.46
2022-12-10T03:50:08.032Z,981.51
2022-12-10T03:51:09.528Z,981.51
2022-12-10T03:52:11.279Z,981.46
2022-12-10T03:53:12.956Z,981.47
2022-12-10T03:54:14.709Z,981.52
2022-12-10T03:55:16.689Z,981.47
2022-12-10T03:56:18.185Z,981.49
2022-12-10T03:57:19.902Z,981.45
2022-12-10T03:58:21.629Z,981.48
2022-12-10T03:59:23.351Z,981.53
2022-12-10T04:00:25.132Z,981.54
2022-12-10T04:01:26.898Z,981.55
2022-12-10T04:02:28.618Z,981.56
2022-12-10T04:03:30.317Z,981.52
2022-12-10T04:04:32.577Z,981.6
2022-12-10T04:05:33.722Z,981.53
2022-12-10T04:06:35.452Z,981.68
2022-12-10T04:07:37.185Z,981.59
2022-12-10T04:08:38.995Z,981.57
2022-12-10T04:09:40.721Z,981.63
2022-12-10T04:10:42.377Z,981.62
2022-12-10T04:11:44.171Z,981.6
2022-12-10T04:12:45.908Z,981.62
2022-12-10T04:13:47.644Z,981.6
2022-12-10T04:14:49.346Z,981.55
2022-12-10T04:15:51.111Z,981.53
2022-12-10T04:16:52.835Z,981.55
2022-12-10T04:17:54.716Z,981.54
2022-12-10T04:19:00.706Z,981.55
2022-12-10T04:19:58.006Z,981.55
2022-12-10T04:20:59.738Z,981.52
2022-12-10T04:22:01.663Z,981.61
2022-12-10T04:23:03.206Z,981.61
2022-12-10T04:24:04.936Z,981.57
2022-12-10T04:25:06.670Z,981.63
2022-12-10T04:26:08.431Z,981.57
2022-12-10T04:27:10.154Z,981.59
2022-12-10T04:28:11.904Z,981.6
2022-12-10T04:29:13.648Z,981.61
2022-12-10T04:30:15.379Z,981.62
2022-12-10T04:31:17.096Z,981.64
2022-12-10T04:32:18.834Z,981.66
2022-12-10T04:33:20.600Z,981.68
2022-12-10T04:34:22.309Z,981.66
2022-12-10T04:35:24.005Z,981.7
2022-12-10T04:36:25.743Z,981.69
2022-12-10T04:37:27.474Z,981.65
2022-12-10T04:38:29.212Z,981.63
2022-12-10T04:39:31.016Z,981.73
2022-12-10T04:40:32.664Z,981.66
2022-12-10T04:41:34.449Z,981.7
2022-12-10T04:42:36.191Z,981.75
2022-12-10T04:43:37.874Z,981.76
2022-12-10T04:44:39.620Z,981.67
2022-12-10T04:45:41.355Z,981.73
2022-12-10T04:46:43.080Z,981.76
2022-12-10T04:47:44.807Z,981.75
2022-12-10T04:48:46.803Z,981.79
2022-12-10T04:49:48.269Z,981.76
2022-12-10T04:50:50.056Z,981.71
2022-12-10T04:51:51.778Z,981.73
2022-12-10T04:52:53.533Z,981.56
2022-12-10T04:53:55.222Z,981.62
2022-12-10T04:54:56.947Z,981.65
2022-12-10T04:55:58.700Z,981.66
2022-12-10T04:57:00.446Z,981.69
2022-12-10T04:58:02.143Z,981.66
2022-12-10T04:59:03.964Z,981.65
2022-12-10T05:00:05.917Z,981.65
2022-12-10T05:01:07.426Z,981.63
2022-12-10T05:02:09.061Z,981.7
2022-12-10T05:03:10.791Z,981.66
2022-12-10T05:04:12.571Z,981.7
2022-12-10T05:05:14.238Z,981.64
2022-12-10T05:06:15.944Z,981.7
2022-12-10T05:07:17.696Z,981.67
2022-12-10T05:08:19.511Z,981.7
2022-12-10T05:09:21.192Z,981.77
2022-12-10T05:10:22.891Z,981.77
2022-12-10T05:11:24.675Z,981.74
2022-12-10T05:12:26.364Z,981.76
2022-12-10T05:13:28.133Z,981.76
2022-12-10T05:14:29.830Z,981.81
2022-12-10T05:15:31.668Z,981.83
2022-12-10T05:16:33.293Z,981.77
2022-12-10T05:17:35.037Z,981.81
2022-12-10T05:18:36.794Z,981.73
2022-12-10T05:19:38.514Z,981.83
2022-12-10T05:20:40.233Z,981.8
2022-12-10T05:21:41.968Z,981.83
2022-12-10T05:22:43.696Z,981.86
2022-12-10T05:23:45.463Z,981.86
2022-12-10T05:24:47.180Z,981.87
2022-12-10T05:25:48.898Z,981.9
2022-12-10T05:26:50.682Z,981.86
2022-12-10T05:27:52.375Z,981.93
2022-12-10T05:28:54.107Z,981.9
2022-12-10T05:29:55.820Z,981.93
2022-12-10T05:30:57.666Z,981.92
2022-12-10T05:31:59.388Z,981.89
2022-12-10T05:33:01.068Z,981.92
2022-12-10T05:34:02.786Z,981.89
2022-12-10T05:35:04.526Z,981.91
2022-12-10T05:36:06.238Z,981.88
2022-12-10T05:37:07.988Z,981.9
2022-12-10T05:38:09.697Z,981.97
2022-12-10T05:39:11.459Z,981.94
2022-12-10T05:40:13.173Z,981.96
2022-12-10T05:41:14.931Z,981.99
2022-12-10T05:42:16.640Z,981.96
2022-12-10T05:43:18.369Z,982.02
2022-12-10T05:44:20.133Z,982.01
2022-12-10T05:45:21.854Z,982.03
2022-12-10T05:46:23.686Z,982.07
2022-12-10T05:47:25.337Z,982.07
2022-12-10T05:48:27.051Z,982.07
2022-12-10T05:49:28.765Z,982.08
2022-12-10T05:50:30.503Z,982.1
2022-12-10T05:51:32.250Z,982.11
2022-12-10T05:52:33.990Z,982.05
2022-12-10T05:53:35.719Z,982.13
2022-12-10T05:54:37.445Z,982.17
2022-12-10T05:55:39.201Z,982.1
2022-12-10T05:56:40.926Z,982.1
2022-12-10T05:57:42.647Z,982.15
2022-12-10T05:58:44.430Z,982.12
2022-12-10T05:59:46.107Z,982.09
2022-12-10T06:00:47.855Z,982.16
2022-12-10T06:01:49.634Z,982.12
2022-12-10T06:02:51.402Z,982.16
2022-12-10T06:03:53.070Z,982.16
2022-12-10T06:04:54.870Z,982.19
2022-12-10T06:05:56.520Z,982.23
2022-12-10T06:06:58.282Z,982.24
2022-12-10T06:08:00.040Z,982.25
2022-12-10T06:09:01.725Z,982.23
2022-12-10T06:10:03.464Z,982.3
2022-12-10T06:11:05.175Z,982.26
2022-12-10T06:12:06.921Z,982.28
2022-12-10T06:13:08.703Z,982.23
2022-12-10T06:14:10.430Z,982.25
2022-12-10T06:15:12.139Z,982.21
2022-12-10T06:16:13.996Z,982.28
2022-12-10T06:17:15.598Z,982.24
2022-12-10T06:18:17.327Z,982.21
2022-12-10T06:19:19.100Z,982.25
2022-12-10T06:20:20.782Z,982.17
2022-12-10T06:21:22.571Z,982.32
2022-12-10T06:22:24.275Z,982.29
2022-12-10T06:23:25.995Z,982.32
2022-12-10T06:24:27.728Z,982.29
2022-12-10T06:25:29.463Z,982.24
2022-12-10T06:26:31.237Z,982.28
2022-12-10T06:27:32.937Z,982.26
2022-12-10T06:28:34.665Z,982.31
2022-12-10T06:29:36.417Z,982.27
2022-12-10T06:30:38.137Z,982.36
2022-12-10T06:31:39.964Z,982.3
2022-12-10T06:32:41.603Z,982.39
2022-12-10T06:33:43.329Z,982.42
2022-12-10T06:34:45.066Z,982.41
2022-12-10T06:35:46.803Z,982.32
2022-12-10T06:36:48.565Z,982.35
2022-12-10T06:37:50.471Z,982.42
2022-12-10T06:38:52.050Z,982.35
2022-12-10T06:39:53.884Z,982.46
2022-12-10T06:40:55.470Z,982.45
2022-12-10T06:41:59.034Z,982.48
2022-12-10T06:42:58.995Z,982.46
2022-12-10T06:44:00.701Z,982.48
2022-12-10T06:45:02.411Z,982.5
2022-12-10T06:46:04.309Z,982.53
2022-12-10T06:47:05.942Z,982.55
2022-12-10T06:48:07.607Z,982.58
2022-12-10T06:49:09.368Z,982.52
2022-12-10T06:50:11.348Z,982.53
2022-12-10T06:51:12.818Z,982.55
2022-12-10T06:52:14.537Z,982.58
2022-12-10T06:53:16.306Z,982.66
2022-12-10T06:54:18.032Z,982.58
2022-12-10T06:55:19.773Z,982.62
2022-12-10T06:56:21.485Z,982.65
2022-12-10T06:57:23.234Z,982.63
2022-12-10T06:58:24.960Z,982.58
2022-12-10T06:59:26.679Z,982.61
2022-12-10T07:00:28.415Z,982.58
2022-12-10T07:01:30.236Z,982.62
2022-12-10T07:02:32.046Z,982.65
2022-12-10T07:03:33.626Z,982.7
2022-12-10T07:04:35.370Z,982.69
2022-12-10T07:05:37.104Z,982.75
2022-12-10T07:06:38.841Z,982.67
2022-12-10T07:07:40.731Z,982.73
2022-12-10T07:08:42.270Z,982.7
2022-12-10T07:09:44.029Z,982.65
2022-12-10T07:10:45.736Z,982.67
2022-12-10T07:11:47.492Z,982.71
2022-12-10T07:12:49.305Z,982.73
2022-12-10T07:13:50.987Z,982.72
2022-12-10T07:14:52.676Z,982.64
2022-12-10T07:15:54.469Z,982.72
2022-12-10T07:16:56.146Z,982.71
2022-12-10T07:17:57.878Z,982.7
2022-12-10T07:18:59.580Z,982.72
2022-12-10T07:20:10.338Z,982.71
2022-12-10T07:21:08.489Z,982.79
2022-12-10T07:22:10.052Z,982.77
2022-12-10T07:23:12.211Z,982.78
2022-12-10T07:24:14.213Z,982.82
2022-12-10T07:25:18.185Z,982.8
2022-12-10T07:27:51.694Z,982.82
2022-12-10T07:29:48.496Z,982.82
2022-12-10T07:33:29.282Z,982.86
2022-12-10T07:34:30.855Z,982.88
2022-12-10T07:35:33.775Z,982.82
2022-12-10T07:36:34.397Z,982.88
2022-12-10T07:37:36.089Z,982.86
2022-12-10T07:38:37.868Z,982.89
2022-12-10T07:39:39.501Z,982.84
2022-12-10T07:40:41.220Z,982.93
2022-12-10T07:41:43.015Z,982.89
2022-12-10T07:42:44.954Z,982.94
2022-12-10T07:43:46.416Z,982.9
2022-12-10T07:44:49.374Z,982.98
2022-12-10T07:45:49.875Z,982.97
2022-12-10T07:46:51.709Z,982.96
2022-12-10T07:47:53.644Z,982.94
2022-12-10T07:48:55.081Z,982.9
2022-12-10T07:49:56.830Z,982.97
2022-12-10T07:50:58.897Z,982.95
2022-12-10T07:52:00.302Z,982.96
2022-12-10T07:53:02.170Z,982.95
2022-12-10T07:54:03.799Z,983
2022-12-10T07:55:05.595Z,982.95
2022-12-10T07:56:19.244Z,982.98
2022-12-10T07:57:14.147Z,982.97
2022-12-10T07:58:16.116Z,983.04
2022-12-10T07:59:17.624Z,983.03
2022-12-10T08:00:19.345Z,982.98
2022-12-10T08:01:21.420Z,983.08
2022-12-10T08:02:22.845Z,983.01
2022-12-10T08:03:24.529Z,983.08
2022-12-10T08:04:26.317Z,983.06
2022-12-10T08:05:28.000Z,983.04
2022-12-10T08:06:29.770Z,983.11
2022-12-10T08:07:31.469Z,983.1
2022-12-10T08:08:33.237Z,983.19
2022-12-10T08:09:34.937Z,983.12
2022-12-10T08:10:36.671Z,983.16
2022-12-10T08:11:38.415Z,983.14
2022-12-10T08:12:40.135Z,983.22
2022-12-10T08:13:41.996Z,983.23
2022-12-10T08:14:43.612Z,983.25
2022-12-10T08:15:45.346Z,983.33
2022-12-10T08:16:47.131Z,983.28
2022-12-10T08:17:48.823Z,983.27
2022-12-10T08:18:50.628Z,983.24
2022-12-10T08:19:52.320Z,983.27
2022-12-10T08:20:54.024Z,983.32
2022-12-10T08:21:55.743Z,983.26
2022-12-10T08:22:57.466Z,983.28
2022-12-10T08:23:59.202Z,983.25
2022-12-10T08:25:00.978Z,983.26
2022-12-10T08:26:02.717Z,983.25
2022-12-10T08:27:04.457Z,983.22
2022-12-10T08:28:06.146Z,983.26
2022-12-10T08:29:07.875Z,983.29
2022-12-10T08:30:09.952Z,983.26
2022-12-10T08:31:11.411Z,983.29
2022-12-10T08:32:13.159Z,983.31
2022-12-10T08:33:14.794Z,983.4
2022-12-10T08:34:16.529Z,983.38
2022-12-10T08:35:18.275Z,983.41
2022-12-10T08:36:20.042Z,983.34
2022-12-10T08:37:21.910Z,983.41
2022-12-10T08:38:23.511Z,983.4
2022-12-10T08:39:25.197Z,983.45
2022-12-10T08:40:26.938Z,983.38
2022-12-10T08:41:28.657Z,983.42
2022-12-10T08:42:30.427Z,983.4
2022-12-10T08:43:32.181Z,983.44
2022-12-10T08:44:33.871Z,983.42
2022-12-10T08:45:35.739Z,983.45
2022-12-10T08:46:37.346Z,983.42
2022-12-10T08:47:39.105Z,983.45
2022-12-10T08:48:40.795Z,983.53
2022-12-10T08:49:42.544Z,983.48
2022-12-10T08:50:44.259Z,983.49
2022-12-10T08:51:46.008Z,983.48
2022-12-10T08:52:48.365Z,983.45
2022-12-10T08:53:49.465Z,983.46
2022-12-10T08:54:51.224Z,983.42
2022-12-10T08:55:53.226Z,983.49
2022-12-10T08:56:54.672Z,983.52
2022-12-10T08:57:56.447Z,983.5
2022-12-10T08:58:58.140Z,983.56
2022-12-10T08:59:59.889Z,983.49
2022-12-10T09:01:01.665Z,983.48
2022-12-10T09:02:03.390Z,983.5
2022-12-10T09:03:05.063Z,983.49
2022-12-10T09:04:06.841Z,983.56
2022-12-10T09:05:08.576Z,983.56
2022-12-10T09:06:10.292Z,983.54
2022-12-10T09:07:13.325Z,983.52
2022-12-10T09:08:13.854Z,983.57
2022-12-10T09:09:15.468Z,983.59
2022-12-10T09:10:17.203Z,983.54
2022-12-10T09:11:18.974Z,983.59
2022-12-10T09:12:20.665Z,983.57
2022-12-10T09:13:22.404Z,983.6
2022-12-10T09:14:24.140Z,983.55
2022-12-10T09:15:25.861Z,983.53
2022-12-10T09:16:27.662Z,983.48
2022-12-10T09:17:29.314Z,983.54
2022-12-10T09:18:31.093Z,983.5
2022-12-10T09:19:32.821Z,983.51
2022-12-10T09:20:34.566Z,983.54
2022-12-10T09:21:36.302Z,983.53
2022-12-10T09:22:37.993Z,983.59
2022-12-10T09:23:39.735Z,983.55
2022-12-10T09:24:41.507Z,983.59
2022-12-10T09:25:43.194Z,983.56
2022-12-10T09:26:44.919Z,983.52
2022-12-10T09:27:46.663Z,983.56
2022-12-10T09:28:48.384Z,983.56
2022-12-10T09:29:50.158Z,983.55
2022-12-10T09:30:51.949Z,983.57
2022-12-10T09:31:53.817Z,983.57
2022-12-10T09:32:55.300Z,983.56
2022-12-10T09:33:57.032Z,983.61
2022-12-10T09:34:58.764Z,983.57
2022-12-10T09:36:00.489Z,983.6
2022-12-10T09:37:02.398Z,983.66
2022-12-10T09:38:03.955Z,983.64
2022-12-10T09:39:05.691Z,983.63
2022-12-10T09:40:07.953Z,983.64
2022-12-10T09:41:09.164Z,983.63
2022-12-10T09:42:10.889Z,983.59
2022-12-10T09:43:18.764Z,983.63
2022-12-10T09:44:14.363Z,983.6
2022-12-10T09:45:16.082Z,983.55
2022-12-10T09:46:17.890Z,983.58
2022-12-10T09:47:19.565Z,983.6
2022-12-10T09:48:21.306Z,983.58
2022-12-10T09:49:23.024Z,983.6
2022-12-10T09:50:24.747Z,983.58
2022-12-10T09:51:26.496Z,983.56
2022-12-10T09:52:28.229Z,983.63
2022-12-10T09:53:29.955Z,983.62
2022-12-10T09:54:31.699Z,983.59
2022-12-10T09:55:33.418Z,983.48
2022-12-10T09:56:35.156Z,983.6
2022-12-10T09:57:36.898Z,983.54
2022-12-10T09:58:38.639Z,983.53
2022-12-10T09:59:40.399Z,983.58
2022-12-10T10:00:42.113Z,983.5
2022-12-10T10:01:43.846Z,983.6
2022-12-10T10:02:45.717Z,983.51
2022-12-10T10:03:48.970Z,983.54
2022-12-10T10:04:49.203Z,983.54
2022-12-10T10:05:50.767Z,983.56
2022-12-10T10:06:52.528Z,983.55
2022-12-10T10:07:54.306Z,983.57
2022-12-10T10:08:55.955Z,983.61
2022-12-10T10:09:57.685Z,983.52
2022-12-10T10:10:59.438Z,983.58
2022-12-10T10:12:05.847Z,983.58
2022-12-10T10:13:02.892Z,983.56
2022-12-10T10:14:04.614Z,983.54
2022-12-10T10:15:06.351Z,983.6
2022-12-10T10:16:08.264Z,983.66
2022-12-10T10:17:09.853Z,983.68
2022-12-10T10:18:11.569Z,983.64
2022-12-10T10:19:13.292Z,983.64
2022-12-10T10:20:15.022Z,983.65
2022-12-10T10:21:16.749Z,983.63
2022-12-10T10:22:18.486Z,983.56
2022-12-10T10:23:20.249Z,983.64
2022-12-10T10:24:21.958Z,983.6
2022-12-10T10:25:23.690Z,983.64
2022-12-10T10:26:25.447Z,983.62
2022-12-10T10:27:27.207Z,983.61
2022-12-10T10:28:28.907Z,983.62
2022-12-10T10:29:30.643Z,983.57
2022-12-10T10:30:32.400Z,983.61
2022-12-10T10:31:34.096Z,983.63
2022-12-10T10:32:35.803Z,983.6
2022-12-10T10:33:37.539Z,983.62
2022-12-10T10:34:39.271Z,983.6
2022-12-10T10:35:41.077Z,983.58
2022-12-10T10:36:42.744Z,983.59
2022-12-10T10:37:44.487Z,983.61
2022-12-10T10:38:46.201Z,983.58
2022-12-10T10:39:47.949Z,983.61
2022-12-10T10:40:49.687Z,983.58
2022-12-10T10:41:56.066Z,983.6
2022-12-10T10:42:53.147Z,983.6
2022-12-10T10:43:54.875Z,983.6
2022-12-10T10:44:56.604Z,983.59
2022-12-10T10:45:58.393Z,983.67
2022-12-10T10:47:00.108Z,983.66
2022-12-10T10:48:01.898Z,983.62
2022-12-10T10:49:03.546Z,983.65
2022-12-10T10:50:05.311Z,983.65
2022-12-10T10:51:06.999Z,983.64
2022-12-10T10:52:08.737Z,983.67
2022-12-10T10:53:10.479Z,983.69
2022-12-10T10:54:12.194Z,983.61
2022-12-10T10:55:13.932Z,983.6
2022-12-10T10:56:15.674Z,983.59
2022-12-10T10:57:17.416Z,983.63
2022-12-10T10:58:19.125Z,983.6
2022-12-10T10:59:20.898Z,983.63
2022-12-10T11:00:22.615Z,983.6
2022-12-10T11:01:24.437Z,983.62
2022-12-10T11:02:26.196Z,983.65
2022-12-10T11:03:27.815Z,983.68
2022-12-10T11:04:29.545Z,983.63
2022-12-10T11:05:35.675Z,983.65
2022-12-10T11:06:32.994Z,983.67
2022-12-10T11:07:34.738Z,983.68
2022-12-10T11:08:36.458Z,983.65
2022-12-10T11:09:38.201Z,983.64
2022-12-10T11:10:39.939Z,983.62
2022-12-10T11:11:41.655Z,983.68
2022-12-10T11:12:43.473Z,983.65
2022-12-10T11:13:45.151Z,983.63
2022-12-10T11:14:46.878Z,983.69
2022-12-10T11:15:48.609Z,983.64
2022-12-10T11:16:50.375Z,983.63
2022-12-10T11:17:52.084Z,983.64
2022-12-10T11:18:53.789Z,983.63
2022-12-10T11:19:55.539Z,983.63
2022-12-10T11:20:57.270Z,983.67
2022-12-10T11:21:58.994Z,983.64
2022-12-10T11:23:00.730Z,983.7
2022-12-10T11:24:03.756Z,983.73
2022-12-10T11:25:04.272Z,983.74
2022-12-10T11:26:05.954Z,983.74
2022-12-10T11:27:07.697Z,983.76
2022-12-10T11:28:09.433Z,983.76
2022-12-10T11:29:11.171Z,983.75
2022-12-10T11:30:12.932Z,983.75
2022-12-10T11:31:14.653Z,983.72
2022-12-10T11:32:16.369Z,983.73
2022-12-10T11:33:18.098Z,983.79
2022-12-10T11:34:19.868Z,983.72
2022-12-10T11:35:21.618Z,983.7
2022-12-10T11:36:23.292Z,983.67
2022-12-10T11:37:27.782Z,983.59
2022-12-10T11:38:26.756Z,983.61
2022-12-10T11:39:28.487Z,983.62
2022-12-10T11:40:30.247Z,983.68
2022-12-10T11:41:32.011Z,983.59
2022-12-10T11:42:33.691Z,983.64
2022-12-10T11:43:35.328Z,983.62
2022-12-10T11:44:37.036Z,983.56
2022-12-10T11:45:38.839Z,983.54
2022-12-10T11:46:40.501Z,983.64
2022-12-10T11:47:42.282Z,983.6
2022-12-10T11:48:48.444Z,983.58
2022-12-10T11:49:50.841Z,983.56
2022-12-10T11:50:52.559Z,983.62
2022-12-10T11:51:54.310Z,983.66
2022-12-10T11:52:56.040Z,983.63
2022-12-10T11:53:57.748Z,983.67
2022-12-10T11:55:04.181Z,983.64
2022-12-10T11:56:01.196Z,983.61
2022-12-10T11:57:02.976Z,983.62
2022-12-10T11:58:04.716Z,983.66
2022-12-10T11:59:14.230Z,983.63
2022-12-10T12:00:15.338Z,983.68
2022-12-10T12:01:20.199Z,983.63
2022-12-10T12:02:21.971Z,983.63
2022-12-10T12:03:23.730Z,983.61
2022-12-10T12:04:25.457Z,983.59
2022-12-10T12:05:27.178Z,983.61
2022-12-10T12:06:28.925Z,983.63
2022-12-10T12:07:30.644Z,983.63
2022-12-10T12:08:32.388Z,983.64
2022-12-10T12:09:34.113Z,983.7
2022-12-10T12:10:52.594Z,983.7
2022-12-10T12:11:37.532Z,983.71
2022-12-10T12:12:39.284Z,983.75
2022-12-10T12:13:41.011Z,983.74
2022-12-10T12:14:42.775Z,983.79
2022-12-10T12:15:44.483Z,983.76
2022-12-10T12:16:46.201Z,983.77
2022-12-10T12:17:47.959Z,983.77
2022-12-10T12:18:49.679Z,983.85
2022-12-10T12:19:51.456Z,983.84
2022-12-10T12:20:53.150Z,983.74
2022-12-10T12:21:54.874Z,983.81
2022-12-10T12:22:56.604Z,983.74
2022-12-10T12:24:03.855Z,983.78
2022-12-10T12:25:00.150Z,983.79
2022-12-10T12:26:01.840Z,983.74
2022-12-10T12:27:03.574Z,983.74
2022-12-10T12:28:05.276Z,983.74
2022-12-10T12:29:07.016Z,983.75
2022-12-10T12:30:09.200Z,983.73
2022-12-10T12:31:10.508Z,983.74
2022-12-10T12:32:12.240Z,983.6
2022-12-10T12:33:13.953Z,983.71
2022-12-10T12:34:15.704Z,983.7
2022-12-10T12:35:17.413Z,983.72
2022-12-10T12:36:19.194Z,983.7
2022-12-10T12:37:20.917Z,983.72
2022-12-10T12:38:22.663Z,983.73
2022-12-10T12:39:24.384Z,983.69
2022-12-10T12:40:26.106Z,983.7
2022-12-10T12:41:27.838Z,983.72
2022-12-10T12:42:29.600Z,983.76
2022-12-10T12:43:31.299Z,983.66
2022-12-10T12:44:33.032Z,983.73
2022-12-10T12:45:34.769Z,983.72
2022-12-10T12:46:36.609Z,983.71
2022-12-10T12:47:38.269Z,983.67
2022-12-10T12:48:39.998Z,983.73
2022-12-10T12:49:41.715Z,983.67
2022-12-10T12:50:43.428Z,983.71
2022-12-10T12:51:45.116Z,983.74
2022-12-10T12:52:46.943Z,983.74
2022-12-10T12:53:48.589Z,983.72
2022-12-10T12:54:50.366Z,983.7
2022-12-10T12:55:52.102Z,983.72
2022-12-10T12:56:53.795Z,983.76
2022-12-10T12:57:55.517Z,983.69